Celebrity Solstice — 9HRJ9 — position and weather

sailwx.info

Track history (hours):
 
Tides and Currents Weather Stations Pressure Air Temp Water Temp Dewpoint Dewpoint Depression Visibility Wind Speed Wind Dir Waves Ship Positions

Celebrity Solstice

Last reported at 2017-Aug-23 06:00 UTC. Time now 2017-Aug-23 13:38 UTC.
Position N 58°06' W 134°54'.

Length 317 m; draft 9 m.

Type: Ship. MMSI: 249409000.

Wind from 150 at 18 knots

Barometer 1008.0 mb
Air temperature 13.7 ° C
Visibility: greater than 5.4 NM
Water temperature 14.8 ° C

Date/timePositionNaut miles runAvg speedWind from/ knotsBaromVisibWave heightAir tempDewpointWater temp
2017-Aug-23 06:00N 58°06' W 134°54'79 8.8 150 / 181008.0 5.4 13.7 14.8
2017-Aug-22 21:00N 59°24' W 135°18'55 4.6 1007.110.8 15.8 13.3
2017-Aug-22 09:00N 58°30' W 134°54'24 3.4 330 / 51009.010.8 14.8 13.7
2017-Aug-22 02:00N 58°12' W 134°24'0 0.0 130 / 81011.0 5.4 13.0 12.5
2017-Aug-21 22:00N 58°12' W 134°24'96 7.4 120 / 91011.3 5.4 13.1 12.2
2017-Aug-21 09:00N 56°36' W 134°24'3311.1 120 / 231011.5 5.4 13.5 13.5
2017-Aug-21 06:00N 56°12' W 133°42'89 9.9 130 / 241010.0 2.2 14.3 13.2
2017-Aug-20 21:00N 55°18' W 131°36'63 5.3 220 / 21015.710.8 15.0 16.0
2017-Aug-20 09:00N 54°18' W 131°00'16318.1 130 / 181018.410.8 13.1 15.3
2017-Aug-20 00:00N 51°42' W 129°42'2614.4 200 / 171023.0 14.4 16.6
2017-Aug-19 22:10N 51°17' W 129°28'2521.5
2017-Aug-19 21:00N 50°54' W 129°12'316.6 220 / 111025.910.8 16.2 15.6
2017-Aug-19 20:49N 50°56' W 129°15'13016.3
2017-Aug-19 12:52N 49°24' W 126°52'616.7
2017-Aug-19 12:30N 49°21' W 126°45'816.1
2017-Aug-19 12:00N 49°16' W 126°35'816.6
2017-Aug-19 11:30N 49°10' W 126°25'1416.5
2017-Aug-19 10:39N 49°02' W 126°08'316.4
2017-Aug-19 10:30N 49°00' W 126°05'816.6
2017-Aug-19 10:00N 48°56' W 125°54'816.1
2017-Aug-19 09:30N 48°50' W 125°46'816.2
2017-Aug-19 09:00N 48°45' W 125°36'3196.6
2017-Aug-19 09:00N 48°42' W 125°36'713.5 300 / 221023.110.8 15.0 14.5
2017-Aug-19 08:30N 48°40' W 125°27'816.4
2017-Aug-19 08:00N 48°35' W 125°17'815.8
2017-Aug-19 07:30N 48°31' W 125°06'816.7
2017-Aug-19 07:00N 48°31' W 124°54'816.8
2017-Aug-19 06:30N 48°30' W 124°41'816.9
2017-Aug-19 06:00N 48°27' W 124°29'816.8
2017-Aug-19 05:30N 48°23' W 124°18'917.1
2017-Aug-19 05:00N 48°20' W 124°06'816.8
2017-Aug-19 04:30N 48°17' W 123°54'816.3
2017-Aug-19 04:00N 48°16' W 123°42'916.9
2017-Aug-19 03:30N 48°14' W 123°29'713.6
2017-Aug-19 03:00N 48°09' W 123°22'815.5
2017-Aug-19 02:28N 48°12' W 123°10'816.1
2017-Aug-19 02:00N 48°12' W 122°59'816.4
2017-Aug-19 01:31N 48°11' W 122°47'1326.1
2017-Aug-19 01:00N 48°00' W 122°36'488.2 270 / 201019.0 18.0 16.1
2017-Aug-19 00:57N 48°04' W 122°38'817.5
2017-Aug-19 00:30N 47°57' W 122°32'816.2
2017-Aug-19 00:01N 47°50' W 122°27'917.2
2017-Aug-18 23:31N 47°41' W 122°27'5 9.5
2017-Aug-18 23:00N 47°37' W 122°23'0 0.8
2017-Aug-18 22:25N 47°38' W 122°23'0 0.0
2017-Aug-18 21:46N 47°38' W 122°23'0 0.0
2017-Aug-18 15:55N 47°38' W 122°23'0 0.0
2017-Aug-18 13:43N 47°38' W 122°23'0 0.0
2017-Aug-18 13:25N 47°38' W 122°23'0 0.0
2017-Aug-18 12:52N 47°38' W 122°23'0 0.9
2017-Aug-18 12:30N 47°37' W 122°23'4 7.9
2017-Aug-18 12:00N 47°39' W 122°28'713.9
2017-Aug-18 11:31N 47°46' W 122°27'714.5
2017-Aug-18 11:01N 47°53' W 122°29'713.9
2017-Aug-18 10:30N 47°59' W 122°36'714.7
2017-Aug-18 10:00N 48°06' W 122°40'815.7
2017-Aug-18 09:30N 48°11' W 122°49'917.3
2017-Aug-18 09:00N 48°12' W 123°02'81157.8
2017-Aug-18 09:00N 48°06' W 122°54'1429.9 270 / 181022.010.8 14.7 14.2
2017-Aug-18 08:30N 48°11' W 123°15'712.8
2017-Aug-18 07:57N 48°10' W 123°25'614.1
2017-Aug-18 07:30N 48°16' W 123°30'815.9
2017-Aug-18 07:00N 48°23' W 123°24'4 1.0
2017-Aug-18 03:00N 48°24' W 123°18'4 1.3 230 / 151022.0 17.8
2017-Aug-18 00:08N 48°25' W 123°23'0 0.6
2017-Aug-18 00:00N 48°25' W 123°23'4 8.4
2017-Aug-17 23:28N 48°21' W 123°24'714.0
2017-Aug-17 23:00N 48°15' W 123°28'916.9
2017-Aug-17 22:30N 48°14' W 123°41'1020.5
2017-Aug-17 22:00N 48°14' W 123°56'1120.9
2017-Aug-17 21:30N 48°18' W 124°11'1020.9
2017-Aug-17 21:00N 48°23' W 124°25'7549.2
2017-Aug-17 21:00N 48°18' W 124°18'1734.3 330 / 151023.910.8 17.1 14.1
2017-Aug-17 20:30N 48°27' W 124°39'816.9
2017-Aug-17 20:00N 48°28' W 124°52'917.1
2017-Aug-17 19:28N 48°28' W 125°06'816.6
2017-Aug-17 19:00N 48°31' W 125°16'816.9
2017-Aug-17 18:30N 48°35' W 125°27'816.5
2017-Aug-17 18:00N 48°39' W 125°38'816.3
2017-Aug-17 17:30N 48°43' W 125°49'816.1
2017-Aug-17 17:00N 48°48' W 125°59'816.2
2017-Aug-17 16:30N 48°53' W 126°09'816.5
2017-Aug-17 16:00N 48°58' W 126°18'816.2
2017-Aug-17 15:30N 49°03' W 126°28'817.0
2017-Aug-17 15:00N 49°08' W 126°38'816.8
2017-Aug-17 14:30N 49°14' W 126°48'816.9
2017-Aug-17 14:00N 49°19' W 126°58'10682.2
2017-Aug-17 14:00N 49°12' W 126°48'1837.8 280 / 141022.0 15.4 15.5
2017-Aug-17 13:30N 49°25' W 127°08'1519.5
2017-Aug-17 12:45N 49°33' W 127°27'3421.7
2017-Aug-17 11:10N 49°55' W 128°08'521.4
2017-Aug-17 10:57N 49°58' W 128°13'2121.1
2017-Aug-17 09:58N 50°11' W 128°39'1515.7
2017-Aug-17 09:00N 50°18' W 129°00'1050.0 260 / 81022.910.8 15.0 15.0
2017-Aug-17 08:47N 50°26' W 129°09'4516.2
2017-Aug-17 06:00N 50°54' W 130°06'8019.9 240 / 131021.0 5.4 15.6 16.8
2017-Aug-17 02:00N 51°54' W 131°30'2323.3 290 / 141020.0 14.0 16.2
2017-Aug-17 01:00N 52°12' W 131°54'8220.6 280 / 111019.0 14.6 16.1
2017-Aug-16 21:00N 53°24' W 133°00'12818.3 250 / 221017.910.8 15.2 15.2
2017-Aug-16 14:00N 55°24' W 134°18'9018.0 200 / 261005.0 2.2 13.0 14.5
2017-Aug-16 09:00N 56°54' W 134°24'6822.6 150 / 121004.2 5.4 12.5 13.9
2017-Aug-16 06:00N 58°00' W 134°54'85 5.7 060 / 201002.0 2.2 12.9 15.9
2017-Aug-15 15:00N 59°24' W 135°18'55 9.2 1010.0
2017-Aug-15 09:00N 58°30' W 134°54'3115.3 160 / 121013.310.8 12.6 15.1
2017-Aug-15 07:00N 58°06' W 134°18'6 1.5 100 / 81013.0 5.4 12.7 13.4
2017-Aug-15 03:00N 58°12' W 134°18'0 0.0 150 / 101012.0 12.4 13.7
2017-Aug-14 21:00N 58°12' W 134°18'46 5.8 1012.8 5.4 13.8 13.4
2017-Aug-14 13:00N 57°30' W 133°42'6416.1 170 / 221011.0 12.7 13.9
2017-Aug-14 09:00N 56°30' W 134°24'3311.2 170 / 191012.210.8 12.7 13.7
2017-Aug-14 06:00N 56°06' W 133°42'3311.2 210 / 241012.810.8 13.1 12.5
2017-Aug-14 03:00N 56°06' W 132°42'6110.1 210 / 151011.0 13.8 15.2
2017-Aug-13 21:00N 55°18' W 131°36'0 0.0 150 / 151009.2 5.4 14.5 16.5
2017-Aug-13 18:00N 55°18' W 131°36'57 6.3 310 / 81007.610.8 14.7 16.4
2017-Aug-13 09:00N 54°24' W 131°06'   150 / 171005.010.8 14.2 15.6
Track history (hours):
 
Tides and Currents Weather Stations Pressure Air Temp Water Temp Dewpoint Dewpoint Depression Visibility Wind Speed Wind Dir Waves Ship Positions

Celebrity Solstice

Last reported at 2017-Aug-23 06:00 UTC. Time now 2017-Aug-23 13:38 UTC.
Position N 58°06' W 134°54'.

Length 317 m; draft 9 m.

Type: Ship. MMSI: 249409000.

Wind from 150 at 18 knots

Barometer 1008.0 mb
Air temperature 13.7 ° C
Visibility: greater than 5.4 NM
Water temperature 14.8 ° C

Date/timePositionNaut miles runAvg speedWind from/ knotsBaromVisibWave heightAir tempDewpointWater temp
2017-Aug-23 06:00N 58°06' W 134°54'79 8.8 150 / 181008.0 5.4 13.7 14.8
2017-Aug-22 21:00N 59°24' W 135°18'55 4.6 1007.110.8 15.8 13.3
2017-Aug-22 09:00N 58°30' W 134°54'24 3.4 330 / 51009.010.8 14.8 13.7
2017-Aug-22 02:00N 58°12' W 134°24'0 0.0 130 / 81011.0 5.4 13.0 12.5
2017-Aug-21 22:00N 58°12' W 134°24'96 7.4 120 / 91011.3 5.4 13.1 12.2
2017-Aug-21 09:00N 56°36' W 134°24'3311.1 120 / 231011.5 5.4 13.5 13.5
2017-Aug-21 06:00N 56°12' W 133°42'89 9.9 130 / 241010.0 2.2 14.3 13.2
2017-Aug-20 21:00N 55°18' W 131°36'63 5.3 220 / 21015.710.8 15.0 16.0
2017-Aug-20 09:00N 54°18' W 131°00'16318.1 130 / 181018.410.8 13.1 15.3
2017-Aug-20 00:00N 51°42' W 129°42'2614.4 200 / 171023.0 14.4 16.6
2017-Aug-19 22:10N 51°17' W 129°28'2521.5
2017-Aug-19 21:00N 50°54' W 129°12'316.6 220 / 111025.910.8 16.2 15.6
2017-Aug-19 20:49N 50°56' W 129°15'13016.3
2017-Aug-19 12:52N 49°24' W 126°52'616.7
2017-Aug-19 12:30N 49°21' W 126°45'816.1
2017-Aug-19 12:00N 49°16' W 126°35'816.6
2017-Aug-19 11:30N 49°10' W 126°25'1416.5
2017-Aug-19 10:39N 49°02' W 126°08'316.4
2017-Aug-19 10:30N 49°00' W 126°05'816.6
2017-Aug-19 10:00N 48°56' W 125°54'816.1
2017-Aug-19 09:30N 48°50' W 125°46'816.2
2017-Aug-19 09:00N 48°45' W 125°36'3196.6
2017-Aug-19 09:00N 48°42' W 125°36'713.5 300 / 221023.110.8 15.0 14.5
2017-Aug-19 08:30N 48°40' W 125°27'816.4
2017-Aug-19 08:00N 48°35' W 125°17'815.8
2017-Aug-19 07:30N 48°31' W 125°06'816.7
2017-Aug-19 07:00N 48°31' W 124°54'816.8
2017-Aug-19 06:30N 48°30' W 124°41'816.9
2017-Aug-19 06:00N 48°27' W 124°29'816.8
2017-Aug-19 05:30N 48°23' W 124°18'917.1
2017-Aug-19 05:00N 48°20' W 124°06'816.8
2017-Aug-19 04:30N 48°17' W 123°54'816.3
2017-Aug-19 04:00N 48°16' W 123°42'916.9
2017-Aug-19 03:30N 48°14' W 123°29'713.6
2017-Aug-19 03:00N 48°09' W 123°22'815.5
2017-Aug-19 02:28N 48°12' W 123°10'816.1
2017-Aug-19 02:00N 48°12' W 122°59'816.4
2017-Aug-19 01:31N 48°11' W 122°47'1326.1
2017-Aug-19 01:00N 48°00' W 122°36'488.2 270 / 201019.0 18.0 16.1
2017-Aug-19 00:57N 48°04' W 122°38'817.5
2017-Aug-19 00:30N 47°57' W 122°32'816.2
2017-Aug-19 00:01N 47°50' W 122°27'917.2
2017-Aug-18 23:31N 47°41' W 122°27'5 9.5
2017-Aug-18 23:00N 47°37' W 122°23'0 0.8
2017-Aug-18 22:25N 47°38' W 122°23'0 0.0
2017-Aug-18 21:46N 47°38' W 122°23'0 0.0
2017-Aug-18 15:55N 47°38' W 122°23'0 0.0
2017-Aug-18 13:43N 47°38' W 122°23'0 0.0
2017-Aug-18 13:25N 47°38' W 122°23'0 0.0
2017-Aug-18 12:52N 47°38' W 122°23'0 0.9
2017-Aug-18 12:30N 47°37' W 122°23'4 7.9
2017-Aug-18 12:00N 47°39' W 122°28'713.9
2017-Aug-18 11:31N 47°46' W 122°27'714.5
2017-Aug-18 11:01N 47°53' W 122°29'713.9
2017-Aug-18 10:30N 47°59' W 122°36'714.7
2017-Aug-18 10:00N 48°06' W 122°40'815.7
2017-Aug-18 09:30N 48°11' W 122°49'917.3
2017-Aug-18 09:00N 48°12' W 123°02'81157.8
2017-Aug-18 09:00N 48°06' W 122°54'1429.9 270 / 181022.010.8 14.7 14.2
2017-Aug-18 08:30N 48°11' W 123°15'712.8
2017-Aug-18 07:57N 48°10' W 123°25'614.1
2017-Aug-18 07:30N 48°16' W 123°30'815.9
2017-Aug-18 07:00N 48°23' W 123°24'4 1.0
2017-Aug-18 03:00N 48°24' W 123°18'4 1.3 230 / 151022.0 17.8
2017-Aug-18 00:08N 48°25' W 123°23'0 0.6
2017-Aug-18 00:00N 48°25' W 123°23'4 8.4
2017-Aug-17 23:28N 48°21' W 123°24'714.0
2017-Aug-17 23:00N 48°15' W 123°28'916.9
2017-Aug-17 22:30N 48°14' W 123°41'1020.5
2017-Aug-17 22:00N 48°14' W 123°56'1120.9
2017-Aug-17 21:30N 48°18' W 124°11'1020.9
2017-Aug-17 21:00N 48°23' W 124°25'7549.2
2017-Aug-17 21:00N 48°18' W 124°18'1734.3 330 / 151023.910.8 17.1 14.1
2017-Aug-17 20:30N 48°27' W 124°39'816.9
2017-Aug-17 20:00N 48°28' W 124°52'917.1
2017-Aug-17 19:28N 48°28' W 125°06'816.6
2017-Aug-17 19:00N 48°31' W 125°16'816.9
2017-Aug-17 18:30N 48°35' W 125°27'816.5
2017-Aug-17 18:00N 48°39' W 125°38'816.3
2017-Aug-17 17:30N 48°43' W 125°49'816.1
2017-Aug-17 17:00N 48°48' W 125°59'816.2
2017-Aug-17 16:30N 48°53' W 126°09'816.5
2017-Aug-17 16:00N 48°58' W 126°18'816.2
2017-Aug-17 15:30N 49°03' W 126°28'817.0
2017-Aug-17 15:00N 49°08' W 126°38'816.8
2017-Aug-17 14:30N 49°14' W 126°48'816.9
2017-Aug-17 14:00N 49°19' W 126°58'10682.2
2017-Aug-17 14:00N 49°12' W 126°48'1837.8 280 / 141022.0 15.4 15.5
2017-Aug-17 13:30N 49°25' W 127°08'1519.5
2017-Aug-17 12:45N 49°33' W 127°27'3421.7
2017-Aug-17 11:10N 49°55' W 128°08'521.4
2017-Aug-17 10:57N 49°58' W 128°13'2121.1
2017-Aug-17 09:58N 50°11' W 128°39'1515.7
2017-Aug-17 09:00N 50°18' W 129°00'1050.0 260 / 81022.910.8 15.0 15.0
2017-Aug-17 08:47N 50°26' W 129°09'4516.2
2017-Aug-17 06:00N 50°54' W 130°06'8019.9 240 / 131021.0 5.4 15.6 16.8
2017-Aug-17 02:00N 51°54' W 131°30'2323.3 290 / 141020.0 14.0 16.2
2017-Aug-17 01:00N 52°12' W 131°54'8220.6 280 / 111019.0 14.6 16.1
2017-Aug-16 21:00N 53°24' W 133°00'12818.3 250 / 221017.910.8 15.2 15.2
2017-Aug-16 14:00N 55°24' W 134°18'9018.0 200 / 261005.0 2.2 13.0 14.5
2017-Aug-16 09:00N 56°54' W 134°24'6822.6 150 / 121004.2 5.4 12.5 13.9
2017-Aug-16 06:00N 58°00' W 134°54'85 5.7 060 / 201002.0 2.2 12.9 15.9
2017-Aug-15 15:00N 59°24' W 135°18'55 9.2 1010.0
2017-Aug-15 09:00N 58°30' W 134°54'3115.3 160 / 121013.310.8 12.6 15.1
2017-Aug-15 07:00N 58°06' W 134°18'6 1.5 100 / 81013.0 5.4 12.7 13.4
2017-Aug-15 03:00N 58°12' W 134°18'0 0.0 150 / 101012.0 12.4 13.7
2017-Aug-14 21:00N 58°12' W 134°18'46 5.8 1012.8 5.4 13.8 13.4
2017-Aug-14 13:00N 57°30' W 133°42'6416.1 170 / 221011.0 12.7 13.9
2017-Aug-14 09:00N 56°30' W 134°24'3311.2 170 / 191012.210.8 12.7 13.7
2017-Aug-14 06:00N 56°06' W 133°42'3311.2 210 / 241012.810.8 13.1 12.5
2017-Aug-14 03:00N 56°06' W 132°42'6110.1 210 / 151011.0 13.8 15.2
2017-Aug-13 21:00N 55°18' W 131°36'0 0.0 150 / 151009.2 5.4 14.5 16.5
2017-Aug-13 18:00N 55°18' W 131°36'57 6.3 310 / 81007.610.8 14.7 16.4
2017-Aug-13 09:00N 54°24' W 131°06'   150 / 171005.010.8 14.2 15.6

Dump ship's entire track history